Time;durP1;ratioP1;P1;durP2;ratioP2;P2;SDS_P1;SDS_P2;PMS_P1;PMS_P2;Temp;Humidity;BMP_temperature;BMP_pressure;BME280_temperature;BME280_humidity;BME280_pressure;Samples;Min_cycle;Max_cycle;Signal;HPM_P1;HPM_P2
2021/05/18 00:00:39;;;;;;;35.17;14.83;;;;;;;;;;5051152;28;20220;-56
2021/05/18 00:03:07;;;;;;;28.57;14.23;;;;;;;;;;5051499;28;20566;-58
2021/05/18 00:05:34;;;;;;;39.37;15.80;;;;;;;;;;5051209;28;20220;-58
2021/05/18 00:08:04;;;;;;;29.87;15.13;;;;;;;;;;5051367;28;20208;-58
2021/05/18 00:13:17;;;;;;;29.17;15.37;;;;;;;;;;5054657;28;20249;-58
2021/05/18 00:15:44;;;;;;;33.87;16.90;;;;;;;;;;5054304;28;20235;-58
2021/05/18 00:18:12;;;;;;;36.20;17.27;;;;;;;;;;5054769;28;20209;-57
2021/05/18 00:20:39;;;;;;;33.23;16.97;;;;;;;;;;5054433;28;20219;-59
2021/05/18 00:23:06;;;;;;;32.53;17.17;;;;;;;;;;5054727;28;20205;-59
2021/05/18 00:25:33;;;;;;;37.33;15.73;;;;;;;;;;5054253;28;20467;-59
2021/05/18 00:28:00;;;;;;;29.77;15.50;;;;;;;;;;5054184;28;20211;-56
2021/05/18 00:30:26;;;;;;;36.63;17.13;;;;;;;;;;5054551;28;20214;-57
2021/05/18 00:32:53;;;;;;;40.63;18.77;;;;;;;;;;5054311;28;20225;-57
2021/05/18 00:35:21;;;;;;;35.63;20.10;;;;;;;;;;5054246;28;20226;-59
2021/05/18 00:37:47;;;;;;;40.63;19.53;;;;;;;;;;5054182;28;20373;-50
2021/05/18 00:40:15;;;;;;;40.03;18.80;;;;;;;;;;5054090;28;20210;-54
2021/05/18 00:42:46;;;;;;;39.80;18.30;;;;;;;;;;5053922;28;20231;-53
2021/05/18 00:45:13;;;;;;;35.00;17.77;;;;;;;;;;5054142;28;20220;-53
2021/05/18 00:47:39;;;;;;;36.07;17.03;;;;;;;;;;5054139;28;20207;-55
2021/05/18 00:50:06;;;;;;;32.70;17.70;;;;;;;;;;5053899;28;20206;-56
2021/05/18 00:52:34;;;;;;;36.43;17.50;;;;;;;;;;5054126;28;20219;-56
2021/05/18 00:55:04;;;;;;;32.60;16.53;;;;;;;;;;5053570;28;20228;-50
2021/05/18 01:00:16;;;;;;;37.43;18.10;;;;;;;;;;5053682;28;20193;-55
2021/05/18 01:02:43;;;;;;;39.10;16.80;;;;;;;;;;5054588;28;20233;-59
2021/05/18 01:05:18;;;;;;;35.20;18.23;;;;;;;;;;5057021;28;20251;-59
2021/05/18 01:07:45;;;;;;;41.87;18.37;;;;;;;;;;5055682;28;20766;-58
2021/05/18 01:10:12;;;;;;;38.70;17.57;;;;;;;;;;5054124;28;20630;-59
2021/05/18 01:12:39;;;;;;;33.70;18.90;;;;;;;;;;5054093;28;20234;-59
2021/05/18 01:15:06;;;;;;;35.87;18.43;;;;;;;;;;5053442;28;20674;-59
2021/05/18 01:17:33;;;;;;;33.70;18.30;;;;;;;;;;5054087;28;20214;-58
2021/05/18 01:20:07;;;;;;;37.70;18.13;;;;;;;;;;5053551;28;20285;-55
2021/05/18 01:22:34;;;;;;;35.10;18.13;;;;;;;;;;5053668;28;20205;-59
2021/05/18 01:25:01;;;;;;;36.10;18.40;;;;;;;;;;5053588;28;20226;-59
2021/05/18 01:27:27;;;;;;;36.30;18.73;;;;;;;;;;5053278;28;20204;-56
2021/05/18 01:29:54;;;;;;;39.03;18.77;;;;;;;;;;5053250;28;20219;-58
2021/05/18 01:32:24;;;;;;;39.10;17.87;;;;;;;;;;5053352;28;20618;-60
2021/05/18 01:34:50;;;;;;;45.97;19.83;;;;;;;;;;5053297;28;20235;-58
2021/05/18 01:37:17;;;;;;;47.00;21.07;;;;;;;;;;5053367;28;20231;-59
2021/05/18 01:39:59;;;;;;;41.27;20.40;;;;;;;;;;5052911;28;20268;-60
2021/05/18 01:45:08;;;;;;;45.63;20.17;;;;;;;;;;5050798;28;20223;-59
2021/05/18 01:47:35;;;;;;;50.17;21.27;;;;;;;;;;5052877;28;20667;-56
2021/05/18 01:50:02;;;;;;;38.63;20.83;;;;;;;;;;5052760;28;20589;-59
2021/05/18 01:52:28;;;;;;;43.37;20.13;;;;;;;;;;5052996;28;20210;-59
2021/05/18 01:54:56;;;;;;;50.37;21.47;;;;;;;;;;5052776;28;20275;-59
2021/05/18 01:57:24;;;;;;;40.90;20.33;;;;;;;;;;5052596;28;20226;-58
2021/05/18 01:59:51;;;;;;;45.30;21.33;;;;;;;;;;5052735;28;20218;-60
2021/05/18 02:02:17;;;;;;;45.53;20.07;;;;;;;;;;5052787;28;20612;-59
2021/05/18 02:04:45;;;;;;;43.37;20.20;;;;;;;;;;5052674;28;20251;-60
2021/05/18 02:07:14;;;;;;;45.57;22.30;;;;;;;;;;5052667;28;20209;-58
2021/05/18 02:09:41;;;;;;;38.30;20.03;;;;;;;;;;5052536;28;20804;-58
2021/05/18 02:12:09;;;;;;;46.03;23.30;;;;;;;;;;5052507;28;20359;-61
2021/05/18 02:14:37;;;;;;;42.70;21.73;;;;;;;;;;5052572;28;20260;-59
2021/05/18 02:17:10;;;;;;;56.67;24.57;;;;;;;;;;5052518;28;20232;-58
2021/05/18 02:19:50;;;;;;;53.47;24.17;;;;;;;;;;5052534;28;20607;-58
2021/05/18 02:24:36;;;;;;;51.93;24.57;;;;;;;;;;5052479;28;20304;-58
2021/05/18 02:25:09;;;;;;;45.77;24.23;;;;;;;;;;5052627;28;20225;-57
2021/05/18 02:27:37;;;;;;;48.63;25.17;;;;;;;;;;5052561;28;20228;-58
2021/05/18 02:30:05;;;;;;;49.93;27.63;;;;;;;;;;5052171;28;20205;-59
2021/05/18 02:32:32;;;;;;;46.37;25.23;;;;;;;;;;5051712;28;20202;-58
2021/05/18 02:34:59;;;;;;;59.47;27.60;;;;;;;;;;5052116;28;20232;-59
2021/05/18 02:37:25;;;;;;;50.27;26.10;;;;;;;;;;5052334;28;20232;-59
2021/05/18 02:39:52;;;;;;;53.63;28.57;;;;;;;;;;5052565;28;20580;-58
2021/05/18 02:42:18;;;;;;;54.47;27.67;;;;;;;;;;5052455;28;20216;-59
2021/05/18 02:44:49;;;;;;;52.33;26.60;;;;;;;;;;5051989;28;20598;-58
2021/05/18 02:50:01;;;;;;;58.17;29.07;;;;;;;;;;5051766;28;20230;-60
2021/05/18 02:52:28;;;;;;;55.83;30.23;;;;;;;;;;5051972;28;20211;-58
2021/05/18 02:54:56;;;;;;;68.43;30.93;;;;;;;;;;5051804;28;20279;-57
2021/05/18 02:57:32;;;;;;;66.50;31.67;;;;;;;;;;5051865;28;20226;-58
2021/05/18 03:00:00;;;;;;;61.07;30.50;;;;;;;;;;5051685;28;20205;-58
2021/05/18 03:02:26;;;;;;;69.23;30.67;;;;;;;;;;5052126;28;20351;-55
2021/05/18 03:04:53;;;;;;;69.97;33.90;;;;;;;;;;5051800;28;20662;-59
2021/05/18 03:07:19;;;;;;;61.53;29.33;;;;;;;;;;5051995;28;20232;-57
2021/05/18 03:09:46;;;;;;;53.37;27.30;;;;;;;;;;5051608;28;20687;-54
2021/05/18 03:12:12;;;;;;;51.07;27.80;;;;;;;;;;5051801;28;20211;-59
2021/05/18 03:14:39;;;;;;;55.77;27.37;;;;;;;;;;5051297;28;20230;-58
2021/05/18 03:17:06;;;;;;;47.00;28.07;;;;;;;;;;5052001;28;20237;-57
2021/05/18 03:19:33;;;;;;;55.60;27.80;;;;;;;;;;5051794;28;20626;-56
2021/05/18 03:22:00;;;;;;;51.80;27.83;;;;;;;;;;5051346;28;20675;-55
2021/05/18 03:24:26;;;;;;;54.17;28.20;;;;;;;;;;5051747;28;20228;-56
2021/05/18 03:26:53;;;;;;;60.07;28.90;;;;;;;;;;5051602;28;20299;-57
2021/05/18 03:29:22;;;;;;;60.10;28.80;;;;;;;;;;5052002;28;20900;-56
2021/05/18 03:34:36;;;;;;;61.40;31.20;;;;;;;;;;5051495;28;20227;-58
2021/05/18 03:37:05;;;;;;;67.60;30.87;;;;;;;;;;5051284;28;20270;-56
2021/05/18 03:39:33;;;;;;;58.73;31.60;;;;;;;;;;5051713;28;20210;-57
2021/05/18 03:42:04;;;;;;;62.87;30.70;;;;;;;;;;5052115;28;20690;-56
2021/05/18 03:44:46;;;;;;;70.00;34.27;;;;;;;;;;5053775;28;20236;-53
2021/05/18 03:52:49;;;;;;;77.07;35.70;;;;;;;;;;5055147;28;20208;-56
2021/05/18 04:03:35;;;;;;;72.10;36.40;;;;;;;;;;5054897;28;20614;-58
2021/05/18 04:17:01;;;;;;;77.77;36.30;;;;;;;;;;5054602;28;20233;-58
2021/05/18 04:19:32;;;;;;;76.50;36.67;;;;;;;;;;5054922;28;20210;-56
2021/05/18 04:22:14;;;;;;;75.57;35.60;;;;;;;;;;5052550;28;20218;-56
2021/05/18 04:41:20;;;;;;;49.00;26.30;;;;;;;;;;5034076;28;20294;-52
2021/05/18 04:49:50;;;;;;;37.40;22.67;;;;;;;;;;5033713;28;20222;-55
2021/05/18 04:52:18;;;;;;;32.53;19.50;;;;;;;;;;5033959;28;20214;-55
2021/05/18 04:55:25;;;;;;;30.23;19.40;;;;;;;;;;5033737;28;20232;-52
2021/05/18 05:00:45;;;;;;;35.10;18.40;;;;;;;;;;5033671;28;20202;-52
2021/05/18 05:06:23;;;;;;;31.20;18.77;;;;;;;;;;5034182;28;20238;-60
2021/05/18 05:08:55;;;;;;;29.90;18.43;;;;;;;;;;5033948;28;20589;-59
2021/05/18 05:14:19;;;;;;;26.33;16.90;;;;;;;;;;5036818;28;20357;-60
2021/05/18 05:16:46;;;;;;;31.67;18.50;;;;;;;;;;5038028;28;20722;-60
2021/05/18 05:19:12;;;;;;;25.50;17.40;;;;;;;;;;5039589;28;20259;-60
2021/05/18 05:21:39;;;;;;;26.03;16.83;;;;;;;;;;5033493;28;20206;-58
2021/05/18 05:24:06;;;;;;;30.23;18.30;;;;;;;;;;5033883;28;20234;-57
2021/05/18 05:26:35;;;;;;;27.87;17.67;;;;;;;;;;5033533;28;20213;-58
2021/05/18 05:29:01;;;;;;;28.00;17.77;;;;;;;;;;5033540;28;20590;-59
2021/05/18 05:31:28;;;;;;;29.13;17.67;;;;;;;;;;5033230;28;20214;-57
2021/05/18 05:33:54;;;;;;;29.80;17.80;;;;;;;;;;5034672;28;20259;-65
2021/05/18 05:36:21;;;;;;;32.27;19.67;;;;;;;;;;5047897;28;20224;-60
2021/05/18 05:38:48;;;;;;;32.57;19.70;;;;;;;;;;5052780;28;20223;-61
2021/05/18 05:41:15;;;;;;;29.17;19.20;;;;;;;;;;5052435;28;20212;-59
2021/05/18 05:43:42;;;;;;;29.53;18.83;;;;;;;;;;5052791;28;20225;-60
2021/05/18 05:46:09;;;;;;;33.40;19.20;;;;;;;;;;5052417;28;20208;-59
2021/05/18 05:48:35;;;;;;;28.73;20.07;;;;;;;;;;5052235;28;20207;-59
2021/05/18 05:51:03;;;;;;;32.90;19.27;;;;;;;;;;5052123;28;20212;-59
2021/05/18 05:53:29;;;;;;;26.20;18.37;;;;;;;;;;5052491;28;20240;-60
2021/05/18 05:55:56;;;;;;;29.87;18.07;;;;;;;;;;5052365;28;20646;-59
2021/05/18 05:58:22;;;;;;;28.37;18.67;;;;;;;;;;5052307;28;20263;-59
2021/05/18 06:00:50;;;;;;;30.80;19.33;;;;;;;;;;5037717;28;20258;-59
2021/05/18 06:03:16;;;;;;;35.83;20.70;;;;;;;;;;5032168;28;20213;-53
2021/05/18 06:05:43;;;;;;;37.63;22.13;;;;;;;;;;5032325;28;20212;-52
2021/05/18 06:08:09;;;;;;;36.83;21.97;;;;;;;;;;5031397;28;20386;-51
2021/05/18 06:10:38;;;;;;;39.47;22.90;;;;;;;;;;5032094;28;20210;-59
2021/05/18 06:13:16;;;;;;;40.43;23.73;;;;;;;;;;5032318;28;20215;-55
2021/05/18 06:16:19;;;;;;;39.80;23.33;;;;;;;;;;5031782;28;20282;-61
2021/05/18 06:35:41;;;;;;;40.47;24.43;;;;;;;;;;5031679;28;20563;-61
2021/05/18 06:43:49;;;;;;;37.93;24.70;;;;;;;;;;5031716;28;20252;-59
2021/05/18 06:46:21;;;;;;;39.80;25.23;;;;;;;;;;5031097;28;20245;-58
2021/05/18 06:48:55;;;;;;;38.33;25.93;;;;;;;;;;5031603;28;20208;-58
2021/05/18 06:51:22;;;;;;;38.27;23.97;;;;;;;;;;5031276;28;20299;-62
2021/05/18 06:53:49;;;;;;;35.10;22.73;;;;;;;;;;5031570;28;20240;-62
2021/05/18 06:56:15;;;;;;;36.97;21.73;;;;;;;;;;5031567;28;20228;-60
2021/05/18 07:01:29;;;;;;;31.40;21.20;;;;;;;;;;5031162;28;20201;-62
2021/05/18 07:04:00;;;;;;;31.70;19.50;;;;;;;;;;5031082;28;20292;-59
2021/05/18 07:06:40;;;;;;;31.47;21.60;;;;;;;;;;5031483;28;20203;-59
2021/05/18 07:09:09;;;;;;;34.03;23.53;;;;;;;;;;5031789;28;20584;-58
2021/05/18 07:11:36;;;;;;;39.73;24.50;;;;;;;;;;5031465;28;20212;-59
2021/05/18 07:14:02;;;;;;;38.67;25.63;;;;;;;;;;5031178;28;20659;-56
2021/05/18 07:16:29;;;;;;;40.40;25.07;;;;;;;;;;5031063;28;20278;-59
2021/05/18 07:18:55;;;;;;;38.40;24.53;;;;;;;;;;5032456;28;20326;-59
2021/05/18 07:21:22;;;;;;;41.80;28.00;;;;;;;;;;5035268;28;20202;-59
2021/05/18 07:23:51;;;;;;;41.43;26.37;;;;;;;;;;5035436;28;20226;-60
2021/05/18 07:26:18;;;;;;;46.70;29.63;;;;;;;;;;5035525;28;20209;-58
2021/05/18 07:28:44;;;;;;;44.70;29.37;;;;;;;;;;5035038;28;20216;-63
2021/05/18 07:31:11;;;;;;;44.10;28.80;;;;;;;;;;5035558;28;20543;-63
2021/05/18 07:33:37;;;;;;;44.30;29.57;;;;;;;;;;5035267;28;20327;-63
2021/05/18 07:36:08;;;;;;;43.87;28.53;;;;;;;;;;5035293;28;20229;-64
2021/05/18 07:38:34;;;;;;;42.90;29.10;;;;;;;;;;5035050;28;20210;-62
2021/05/18 07:41:02;;;;;;;43.67;28.07;;;;;;;;;;5035004;28;20229;-60
2021/05/18 07:43:28;;;;;;;42.00;27.03;;;;;;;;;;5034961;28;20217;-60
2021/05/18 07:45:56;;;;;;;43.50;28.53;;;;;;;;;;5035252;28;20211;-57
2021/05/18 07:48:28;;;;;;;42.63;28.37;;;;;;;;;;5035070;28;20305;-61
2021/05/18 07:51:06;;;;;;;42.70;28.47;;;;;;;;;;5034868;28;20210;-58
2021/05/18 08:07:13;;;;;;;40.53;28.43;;;;;;;;;;5034526;28;20644;-63
2021/05/18 08:09:44;;;;;;;46.17;29.03;;;;;;;;;;5034560;28;20685;-61
2021/05/18 08:12:11;;;;;;;49.70;30.10;;;;;;;;;;5034513;28;20302;-59
2021/05/18 08:14:41;;;;;;;46.77;28.70;;;;;;;;;;5034028;28;20249;-55
2021/05/18 08:17:16;;;;;;;51.37;30.17;;;;;;;;;;5034196;28;20317;-64
2021/05/18 08:20:09;;;;;;;45.10;28.90;;;;;;;;;;5040451;28;20615;-61
2021/05/18 08:56:42;;;;;;;33.83;23.10;;;;;;;;;;5053482;28;20195;-59
2021/05/18 09:01:45;;;;;;;32.33;22.90;;;;;;;;;;5053128;28;20220;-60
2021/05/18 10:26:58;;;;;;;18.00;13.23;;;;;;;;;;5051890;28;20207;-67
2021/05/18 10:37:36;;;;;;;12.67;3.73;;;;;;;;;;5051518;28;20248;-65
2021/05/18 10:40:21;;;;;;;5.17;4.10;;;;;;;;;;5031427;28;20292;-63
2021/05/18 10:43:06;;;;;;;6.47;4.00;;;;;;;;;;5032146;28;20267;-64
2021/05/18 10:45:47;;;;;;;5.97;4.00;;;;;;;;;;5031794;28;20253;-63
2021/05/18 10:48:15;;;;;;;8.67;4.73;;;;;;;;;;5031555;28;20233;-59
2021/05/18 10:50:42;;;;;;;7.03;4.90;;;;;;;;;;5032081;28;20214;-55
2021/05/18 10:53:21;;;;;;;13.60;7.43;;;;;;;;;;5031551;28;20820;-58
2021/05/18 10:56:06;;;;;;;9.10;7.33;;;;;;;;;;5031840;28;20596;-58
2021/05/18 10:58:33;;;;;;;14.10;9.87;;;;;;;;;;5031430;28;20217;-59
2021/05/18 11:00:59;;;;;;;26.47;13.07;;;;;;;;;;5031685;28;20202;-61
2021/05/18 11:03:26;;;;;;;27.37;18.10;;;;;;;;;;5031432;28;20255;-61
2021/05/18 11:05:53;;;;;;;15.23;12.03;;;;;;;;;;5032185;28;20206;-62
2021/05/18 11:08:20;;;;;;;15.27;11.00;;;;;;;;;;5031364;28;20221;-62
2021/05/18 11:10:47;;;;;;;18.27;11.23;;;;;;;;;;5031655;28;20213;-62
2021/05/18 11:13:14;;;;;;;13.83;9.57;;;;;;;;;;5031412;28;20302;-61
2021/05/18 11:15:40;;;;;;;10.83;9.00;;;;;;;;;;5031546;28;20690;-60
2021/05/18 11:18:07;;;;;;;13.10;9.57;;;;;;;;;;5031051;28;20275;-61
2021/05/18 11:20:47;;;;;;;12.27;8.87;;;;;;;;;;5031413;28;20210;-62
2021/05/18 11:23:23;;;;;;;13.67;9.53;;;;;;;;;;5032039;28;20251;-68
2021/05/18 11:25:52;;;;;;;13.13;10.17;;;;;;;;;;5031831;28;20197;-64
2021/05/18 11:28:26;;;;;;;12.63;10.30;;;;;;;;;;5031009;28;20760;-62
2021/05/18 11:30:54;;;;;;;11.40;9.87;;;;;;;;;;5031030;28;20217;-65
2021/05/18 11:33:20;;;;;;;13.50;9.60;;;;;;;;;;5035516;28;20201;-63
2021/05/18 11:36:00;;;;;;;11.73;9.30;;;;;;;;;;5051103;28;20209;-64
2021/05/18 11:38:27;;;;;;;10.47;9.27;;;;;;;;;;5051106;28;20288;-66
2021/05/18 11:40:54;;;;;;;9.60;8.60;;;;;;;;;;5050721;28;20271;-65
2021/05/18 11:43:22;;;;;;;11.83;9.70;;;;;;;;;;5051207;28;20282;-58
2021/05/18 11:45:50;;;;;;;11.73;9.60;;;;;;;;;;5051016;28;20567;-61
2021/05/18 11:48:17;;;;;;;12.43;8.00;;;;;;;;;;5050769;28;20583;-60
2021/05/18 11:50:44;;;;;;;10.27;8.07;;;;;;;;;;5050849;28;20217;-59
2021/05/18 11:53:25;;;;;;;8.63;7.10;;;;;;;;;;5051040;28;20248;-59
2021/05/18 11:55:53;;;;;;;7.50;6.53;;;;;;;;;;5050964;28;20221;-59
2021/05/18 11:58:20;;;;;;;7.43;6.53;;;;;;;;;;5050622;28;20217;-57
2021/05/18 12:00:46;;;;;;;8.23;6.97;;;;;;;;;;5050965;28;20209;-65
2021/05/18 12:03:13;;;;;;;9.20;7.77;;;;;;;;;;5050986;28;20220;-62
2021/05/18 12:05:55;;;;;;;9.97;8.03;;;;;;;;;;5053016;28;20316;-62
2021/05/18 12:08:26;;;;;;;10.93;9.10;;;;;;;;;;5054338;28;20212;-62
2021/05/18 12:10:53;;;;;;;11.20;8.93;;;;;;;;;;5054435;28;20302;-62
2021/05/18 12:13:30;;;;;;;11.47;9.70;;;;;;;;;;5054634;28;20205;-62
2021/05/18 12:16:00;;;;;;;11.33;9.77;;;;;;;;;;5054646;28;20216;-63
2021/05/18 12:18:29;;;;;;;9.23;7.37;;;;;;;;;;5054360;28;20217;-60
2021/05/18 12:21:00;;;;;;;11.63;9.80;;;;;;;;;;5054376;28;20205;-62
2021/05/18 12:23:27;;;;;;;10.93;9.80;;;;;;;;;;5053968;28;20878;-62
2021/05/18 12:26:08;;;;;;;9.37;7.60;;;;;;;;;;5054366;28;20263;-61
2021/05/18 12:28:34;;;;;;;9.23;7.30;;;;;;;;;;5053814;28;20205;-62
2021/05/18 12:31:01;;;;;;;7.60;6.80;;;;;;;;;;5054446;28;20215;-60
2021/05/18 12:33:37;;;;;;;7.87;6.20;;;;;;;;;;5054126;28;20247;-59
2021/05/18 12:36:04;;;;;;;10.27;6.93;;;;;;;;;;5053861;28;20681;-58
2021/05/18 12:38:30;;;;;;;9.53;7.90;;;;;;;;;;5053969;28;20579;-58
2021/05/18 12:41:02;;;;;;;9.23;8.03;;;;;;;;;;5053844;28;20209;-56
2021/05/18 12:43:38;;;;;;;8.33;7.43;;;;;;;;;;5053847;28;20213;-60
2021/05/18 12:46:08;;;;;;;10.83;7.70;;;;;;;;;;5053847;28;20209;-64
2021/05/18 12:48:38;;;;;;;12.23;9.33;;;;;;;;;;5053454;28;20674;-62
2021/05/18 12:51:16;;;;;;;9.17;8.27;;;;;;;;;;5053701;28;20202;-65
2021/05/18 12:53:42;;;;;;;10.43;8.13;;;;;;;;;;5053580;28;20275;-64
2021/05/18 12:56:12;;;;;;;14.63;11.83;;;;;;;;;;5053566;28;20688;-64
2021/05/18 12:58:39;;;;;;;10.13;8.33;;;;;;;;;;5053477;28;20210;-64
2021/05/18 13:01:10;;;;;;;10.30;8.70;;;;;;;;;;5053423;28;20210;-64
2021/05/18 13:03:38;;;;;;;11.13;9.90;;;;;;;;;;5053430;28;20229;-61
2021/05/18 13:06:05;;;;;;;9.60;8.60;;;;;;;;;;5053510;28;20217;-64
2021/05/18 13:08:33;;;;;;;10.23;9.00;;;;;;;;;;5053442;28;20224;-66
2021/05/18 13:11:08;;;;;;;10.67;9.57;;;;;;;;;;5053620;28;20209;-63
2021/05/18 13:13:49;;;;;;;10.90;6.63;;;;;;;;;;5053461;28;20632;-65
2021/05/18 13:16:17;;;;;;;10.23;8.03;;;;;;;;;;5052694;28;20212;-64
2021/05/18 13:18:52;;;;;;;13.77;7.37;;;;;;;;;;5053055;28;20217;-67
2021/05/18 13:21:19;;;;;;;7.17;5.40;;;;;;;;;;5053658;28;20216;-68
2021/05/18 13:23:59;;;;;;;7.30;4.70;;;;;;;;;;5053350;28;20229;-66
2021/05/18 13:26:26;;;;;;;6.97;5.47;;;;;;;;;;5053124;28;20241;-66
2021/05/18 13:28:58;;;;;;;11.43;6.80;;;;;;;;;;5053246;28;20254;-66
2021/05/18 13:31:24;;;;;;;7.87;7.03;;;;;;;;;;5055676;28;20916;-67
2021/05/18 13:33:51;;;;;;;8.83;7.70;;;;;;;;;;5054179;28;20263;-67
2021/05/18 13:36:17;;;;;;;10.53;8.77;;;;;;;;;;5053339;28;20209;-66
2021/05/18 13:38:44;;;;;;;11.00;9.10;;;;;;;;;;5053828;28;20206;-67
2021/05/18 13:41:10;;;;;;;10.03;8.47;;;;;;;;;;5054843;28;20202;-67
2021/05/18 13:43:37;;;;;;;13.80;9.37;;;;;;;;;;5054469;28;20230;-64
2021/05/18 13:46:04;;;;;;;14.43;8.77;;;;;;;;;;5052334;28;20213;-66
2021/05/18 13:48:31;;;;;;;12.40;8.50;;;;;;;;;;5052531;28;20206;-65
2021/05/18 13:50:58;;;;;;;9.37;8.37;;;;;;;;;;5052343;28;20217;-67
2021/05/18 13:53:24;;;;;;;10.73;7.43;;;;;;;;;;5052705;28;20247;-65
2021/05/18 13:55:51;;;;;;;8.87;7.77;;;;;;;;;;5052526;28;20219;-65
2021/05/18 13:58:17;;;;;;;11.87;8.80;;;;;;;;;;5052034;28;20241;-66
2021/05/18 14:00:44;;;;;;;12.70;8.73;;;;;;;;;;5052306;28;20201;-65
2021/05/18 14:03:11;;;;;;;11.67;9.10;;;;;;;;;;5052268;28;20581;-65
2021/05/18 14:05:38;;;;;;;12.13;10.07;;;;;;;;;;5052212;28;20226;-63
2021/05/18 14:08:22;;;;;;;12.77;9.43;;;;;;;;;;5052075;28;20240;-63
2021/05/18 14:10:49;;;;;;;11.33;9.30;;;;;;;;;;5051916;28;20214;-64
2021/05/18 14:13:15;;;;;;;12.17;9.53;;;;;;;;;;5052153;28;20213;-65
2021/05/18 14:15:42;;;;;;;11.03;8.53;;;;;;;;;;5052087;28;20603;-64
2021/05/18 14:18:09;;;;;;;11.93;10.03;;;;;;;;;;5051968;28;20227;-65
2021/05/18 14:20:37;;;;;;;11.07;8.43;;;;;;;;;;5051767;28;20282;-64
2021/05/18 14:23:03;;;;;;;8.33;7.40;;;;;;;;;;5052134;28;20596;-66
2021/05/18 14:25:30;;;;;;;7.10;6.40;;;;;;;;;;5051890;28;20233;-65
2021/05/18 14:27:56;;;;;;;8.80;7.90;;;;;;;;;;5051797;28;20209;-66
2021/05/18 14:30:23;;;;;;;8.10;7.30;;;;;;;;;;5051402;28;20217;-66
2021/05/18 14:32:50;;;;;;;10.53;7.87;;;;;;;;;;5047716;28;20249;-60
2021/05/18 14:35:16;;;;;;;11.10;7.83;;;;;;;;;;5042300;28;20225;-60
2021/05/18 14:37:47;;;;;;;9.17;7.33;;;;;;;;;;5039952;28;20224;-61
2021/05/18 14:40:27;;;;;;;8.30;7.50;;;;;;;;;;5046989;28;20224;-60
2021/05/18 14:42:55;;;;;;;8.30;7.50;;;;;;;;;;5047692;28;20209;-61
2021/05/18 14:45:25;;;;;;;9.10;7.13;;;;;;;;;;5051197;28;20305;-61
2021/05/18 14:48:13;;;;;;;7.83;6.77;;;;;;;;;;5031937;28;20202;-56
2021/05/18 14:56:10;;;;;;;7.93;7.13;;;;;;;;;;5031670;28;20216;-67
2021/05/18 14:58:36;;;;;;;10.80;6.87;;;;;;;;;;5031431;28;20776;-60
2021/05/18 15:01:03;;;;;;;8.00;6.47;;;;;;;;;;5031550;28;20210;-60
2021/05/18 15:03:32;;;;;;;7.47;6.67;;;;;;;;;;5031724;28;20207;-61
2021/05/18 15:05:58;;;;;;;8.57;6.97;;;;;;;;;;5031611;28;20210;-62
2021/05/18 15:08:26;;;;;;;8.17;6.93;;;;;;;;;;5031232;28;20852;-61
2021/05/18 15:10:56;;;;;;;7.13;6.27;;;;;;;;;;5031028;28;20210;-60
2021/05/18 15:13:23;;;;;;;7.43;6.47;;;;;;;;;;5031178;28;20210;-61
2021/05/18 15:15:49;;;;;;;7.50;6.80;;;;;;;;;;5031161;28;20217;-60
2021/05/18 15:18:16;;;;;;;9.87;8.50;;;;;;;;;;5030958;28;20236;-62
2021/05/18 15:20:43;;;;;;;8.30;6.73;;;;;;;;;;5030884;28;20316;-61
2021/05/18 15:23:09;;;;;;;6.90;5.90;;;;;;;;;;5031205;28;20210;-67
2021/05/18 15:25:38;;;;;;;5.67;5.00;;;;;;;;;;5029867;28;20227;-66
2021/05/18 15:28:05;;;;;;;4.97;4.27;;;;;;;;;;5029865;28;20678;-66
2021/05/18 15:30:31;;;;;;;8.43;4.67;;;;;;;;;;5030268;28;20210;-67
2021/05/18 15:32:58;;;;;;;5.13;4.07;;;;;;;;;;5031200;28;20210;-67
2021/05/18 15:35:24;;;;;;;5.30;3.90;;;;;;;;;;5031369;28;20222;-65
2021/05/18 15:37:51;;;;;;;4.60;3.90;;;;;;;;;;5030899;28;20234;-66
2021/05/18 15:40:17;;;;;;;5.93;4.73;;;;;;;;;;5032679;28;20264;-66
2021/05/18 15:42:45;;;;;;;6.50;5.53;;;;;;;;;;5034790;28;20715;-69
2021/05/18 15:45:12;;;;;;;4.33;3.73;;;;;;;;;;5034728;28;20638;-68
2021/05/18 15:47:39;;;;;;;6.43;4.07;;;;;;;;;;5034188;28;20209;-59
2021/05/18 15:50:07;;;;;;;6.47;4.60;;;;;;;;;;5035233;28;20212;-62
2021/05/18 15:52:34;;;;;;;3.93;3.00;;;;;;;;;;5034317;28;20259;-58
2021/05/18 15:55:00;;;;;;;4.43;3.20;;;;;;;;;;5034354;28;20711;-58
2021/05/18 15:57:27;;;;;;;3.97;2.80;;;;;;;;;;5034660;28;20280;-56
2021/05/18 15:59:54;;;;;;;6.60;4.07;;;;;;;;;;5034526;28;20221;-62
2021/05/18 16:02:21;;;;;;;5.67;3.97;;;;;;;;;;5034771;28;20202;-64
2021/05/18 16:04:47;;;;;;;5.90;3.10;;;;;;;;;;5034398;28;20228;-60
2021/05/18 16:07:15;;;;;;;5.67;2.43;;;;;;;;;;5034376;28;20642;-59
2021/05/18 16:09:42;;;;;;;3.93;2.97;;;;;;;;;;5034256;28;20283;-65
2021/05/18 16:12:09;;;;;;;4.03;2.70;;;;;;;;;;5034520;28;20220;-60
2021/05/18 16:14:36;;;;;;;3.13;2.40;;;;;;;;;;5032813;28;20640;-61
2021/05/18 16:17:03;;;;;;;2.10;1.90;;;;;;;;;;5033259;28;20230;-65
2021/05/18 16:19:30;;;;;;;2.00;1.80;;;;;;;;;;5033181;28;20583;-64
2021/05/18 16:21:57;;;;;;;4.20;2.30;;;;;;;;;;5033311;28;20217;-66
2021/05/18 16:24:25;;;;;;;2.90;2.00;;;;;;;;;;5033840;28;20234;-62
2021/05/18 16:26:53;;;;;;;2.10;1.90;;;;;;;;;;5033974;28;20206;-66
2021/05/18 16:29:19;;;;;;;2.50;2.30;;;;;;;;;;5033589;28;20304;-65
2021/05/18 16:31:46;;;;;;;4.83;2.63;;;;;;;;;;5034006;28;20225;-61
2021/05/18 16:34:13;;;;;;;3.70;3.20;;;;;;;;;;5033793;28;20270;-61
2021/05/18 16:36:40;;;;;;;4.87;2.93;;;;;;;;;;5033402;28;20202;-61
2021/05/18 16:39:08;;;;;;;3.97;2.83;;;;;;;;;;5033652;28;20206;-62
2021/05/18 16:41:35;;;;;;;3.80;3.27;;;;;;;;;;5033892;28;20279;-64
2021/05/18 16:44:02;;;;;;;5.63;3.60;;;;;;;;;;5033876;28;20226;-61
2021/05/18 16:46:29;;;;;;;6.83;3.10;;;;;;;;;;5033586;28;20206;-61
2021/05/18 16:48:56;;;;;;;4.97;3.10;;;;;;;;;;5033793;28;20206;-59
2021/05/18 16:51:23;;;;;;;3.77;2.77;;;;;;;;;;5032703;28;20257;-58
2021/05/18 16:53:53;;;;;;;3.50;2.73;;;;;;;;;;5034292;28;20233;-58
2021/05/18 16:56:19;;;;;;;4.23;2.77;;;;;;;;;;5033592;28;20309;-62
2021/05/18 16:58:46;;;;;;;3.27;2.70;;;;;;;;;;5033555;28;20253;-64
2021/05/18 17:01:13;;;;;;;3.40;2.57;;;;;;;;;;5033652;28;20594;-63
2021/05/18 17:03:39;;;;;;;2.70;2.20;;;;;;;;;;5033072;28;20233;-64
2021/05/18 17:06:06;;;;;;;2.77;2.37;;;;;;;;;;5033421;28;20229;-60
2021/05/18 17:08:34;;;;;;;3.67;2.60;;;;;;;;;;5033366;28;20206;-61
2021/05/18 17:11:01;;;;;;;4.83;2.60;;;;;;;;;;5033174;28;20571;-63
2021/05/18 17:13:27;;;;;;;3.60;2.40;;;;;;;;;;5033430;28;20206;-63
2021/05/18 17:15:54;;;;;;;3.50;2.40;;;;;;;;;;5033137;28;20221;-62
2021/05/18 17:18:20;;;;;;;5.13;2.93;;;;;;;;;;5032936;28;20230;-62
2021/05/18 17:20:47;;;;;;;3.60;2.83;;;;;;;;;;5033459;28;20571;-64
2021/05/18 17:23:14;;;;;;;3.63;2.70;;;;;;;;;;5033035;28;20206;-65
2021/05/18 17:25:42;;;;;;;6.53;3.30;;;;;;;;;;5033240;28;20226;-63
2021/05/18 17:28:09;;;;;;;3.90;2.50;;;;;;;;;;5032736;28;20206;-63
2021/05/18 17:30:35;;;;;;;3.63;2.30;;;;;;;;;;5033071;28;20206;-62
2021/05/18 17:33:02;;;;;;;3.70;2.40;;;;;;;;;;5033026;28;20264;-63
2021/05/18 17:35:28;;;;;;;4.40;2.60;;;;;;;;;;5034016;28;20249;-61
2021/05/18 17:37:55;;;;;;;3.50;2.60;;;;;;;;;;5035355;28;20234;-62
2021/05/18 17:40:22;;;;;;;3.67;2.70;;;;;;;;;;5034168;28;20563;-61
2021/05/18 17:42:50;;;;;;;5.17;2.57;;;;;;;;;;5034227;28;20206;-65
2021/05/18 17:45:16;;;;;;;3.53;2.70;;;;;;;;;;5038484;28;20229;-66
2021/05/18 17:47:44;;;;;;;5.07;3.33;;;;;;;;;;5041182;28;20256;-65
2021/05/18 17:50:11;;;;;;;5.33;3.40;;;;;;;;;;5039521;28;20210;-64
2021/05/18 17:52:38;;;;;;;5.87;4.03;;;;;;;;;;5032255;28;20214;-67
2021/05/18 17:55:05;;;;;;;4.53;3.80;;;;;;;;;;5031982;28;20230;-67
2021/05/18 17:57:32;;;;;;;4.37;3.80;;;;;;;;;;5032487;28;20222;-64
2021/05/18 17:59:59;;;;;;;4.60;4.13;;;;;;;;;;5032452;28;20256;-59
2021/05/18 18:02:26;;;;;;;5.50;4.07;;;;;;;;;;5032574;28;20207;-61
2021/05/18 18:04:52;;;;;;;4.63;4.20;;;;;;;;;;5032521;28;20226;-61
2021/05/18 18:07:19;;;;;;;5.57;4.97;;;;;;;;;;5032400;28;20253;-60
2021/05/18 18:09:46;;;;;;;6.10;5.50;;;;;;;;;;5032447;28;20823;-60
2021/05/18 18:12:13;;;;;;;6.63;5.00;;;;;;;;;;5032522;28;20669;-62
2021/05/18 18:14:39;;;;;;;5.53;5.00;;;;;;;;;;5031883;28;20242;-65
2021/05/18 18:17:12;;;;;;;6.33;4.90;;;;;;;;;;5032313;28;20234;-57
2021/05/18 18:19:40;;;;;;;8.30;4.83;;;;;;;;;;5032426;28;20248;-59
2021/05/18 18:22:07;;;;;;;7.53;5.13;;;;;;;;;;5032007;28;20206;-62
2021/05/18 18:24:36;;;;;;;7.40;4.77;;;;;;;;;;5031962;28;20226;-62
2021/05/18 18:27:03;;;;;;;6.10;5.00;;;;;;;;;;5031432;28;20301;-61
2021/05/18 18:29:30;;;;;;;8.37;5.27;;;;;;;;;;5031998;28;20634;-66
2021/05/18 18:31:56;;;;;;;6.83;4.83;;;;;;;;;;5031900;28;20213;-62
2021/05/18 18:34:23;;;;;;;5.63;5.10;;;;;;;;;;5031943;28;20230;-59
2021/05/18 18:36:50;;;;;;;6.90;5.67;;;;;;;;;;5031447;28;20217;-56
2021/05/18 18:39:17;;;;;;;9.03;5.33;;;;;;;;;;5032044;28;20207;-61